sensor_id;sensor_type;location;lat;lon;timestamp;P1;durP1;ratioP1;P2;durP2;ratioP2
33802;SDS011;20110;53.120;5.786;2022-09-09T00:02:18;18.02;;;11.73;;
33802;SDS011;20110;53.120;5.786;2022-09-09T00:07:52;27.40;;;11.45;;
33802;SDS011;20110;53.120;5.786;2022-09-09T00:21:37;20.55;;;12.05;;
33802;SDS011;20110;53.120;5.786;2022-09-09T00:30:00;31.50;;;14.27;;
33802;SDS011;20110;53.120;5.786;2022-09-09T00:32:47;28.02;;;15.13;;
33802;SDS011;20110;53.120;5.786;2022-09-09T00:35:24;23.85;;;13.75;;
33802;SDS011;20110;53.120;5.786;2022-09-09T00:37:57;23.05;;;13.43;;
33802;SDS011;20110;53.120;5.786;2022-09-09T00:40:37;24.67;;;12.48;;
33802;SDS011;20110;53.120;5.786;2022-09-09T00:45:59;32.78;;;14.63;;
33802;SDS011;20110;53.120;5.786;2022-09-09T00:49:18;23.17;;;13.80;;
33802;SDS011;20110;53.120;5.786;2022-09-09T00:51:55;32.15;;;15.90;;
33802;SDS011;20110;53.120;5.786;2022-09-09T00:55:13;34.20;;;13.27;;
33802;SDS011;20110;53.120;5.786;2022-09-09T00:58:01;26.50;;;13.63;;
33802;SDS011;20110;53.120;5.786;2022-09-09T01:06:19;32.10;;;14.52;;
33802;SDS011;20110;53.120;5.786;2022-09-09T01:09:06;23.02;;;13.80;;
33802;SDS011;20110;53.120;5.786;2022-09-09T01:17:03;32.22;;;15.35;;
33802;SDS011;20110;53.120;5.786;2022-09-09T01:28:46;31.63;;;14.32;;
33802;SDS011;20110;53.120;5.786;2022-09-09T01:31:34;22.75;;;13.30;;
33802;SDS011;20110;53.120;5.786;2022-09-09T01:34:11;28.75;;;13.65;;
33802;SDS011;20110;53.120;5.786;2022-09-09T01:36:49;31.98;;;14.30;;
33802;SDS011;20110;53.120;5.786;2022-09-09T01:39:24;22.47;;;12.93;;
33802;SDS011;20110;53.120;5.786;2022-09-09T01:41:50;28.75;;;14.20;;
33802;SDS011;20110;53.120;5.786;2022-09-09T01:44:17;29.20;;;14.70;;
33802;SDS011;20110;53.120;5.786;2022-09-09T01:46:44;29.58;;;14.45;;
33802;SDS011;20110;53.120;5.786;2022-09-09T01:49:10;37.03;;;15.00;;
33802;SDS011;20110;53.120;5.786;2022-09-09T01:51:37;28.67;;;14.88;;
33802;SDS011;20110;53.120;5.786;2022-09-09T01:54:06;34.78;;;15.18;;
33802;SDS011;20110;53.120;5.786;2022-09-09T01:59:45;38.55;;;15.63;;
33802;SDS011;20110;53.120;5.786;2022-09-09T02:05:10;30.58;;;15.40;;
33802;SDS011;20110;53.120;5.786;2022-09-09T02:08:00;32.58;;;15.65;;
33802;SDS011;20110;53.120;5.786;2022-09-09T02:10:46;27.13;;;13.48;;
33802;SDS011;20110;53.120;5.786;2022-09-09T02:13:21;39.10;;;14.48;;
33802;SDS011;20110;53.120;5.786;2022-09-09T02:18:35;34.45;;;16.58;;
33802;SDS011;20110;53.120;5.786;2022-09-09T02:21:11;27.50;;;14.63;;
33802;SDS011;20110;53.120;5.786;2022-09-09T02:23:40;29.80;;;15.38;;
33802;SDS011;20110;53.120;5.786;2022-09-09T02:26:08;29.98;;;14.15;;
33802;SDS011;20110;53.120;5.786;2022-09-09T02:28:39;29.73;;;15.15;;
33802;SDS011;20110;53.120;5.786;2022-09-09T02:31:07;35.90;;;15.02;;
33802;SDS011;20110;53.120;5.786;2022-09-09T02:33:35;37.47;;;15.50;;
33802;SDS011;20110;53.120;5.786;2022-09-09T02:36:08;38.88;;;15.57;;
33802;SDS011;20110;53.120;5.786;2022-09-09T02:38:37;29.92;;;14.80;;
33802;SDS011;20110;53.120;5.786;2022-09-09T02:41:11;33.85;;;15.30;;
33802;SDS011;20110;53.120;5.786;2022-09-09T02:43:36;30.92;;;15.68;;
33802;SDS011;20110;53.120;5.786;2022-09-09T02:46:15;40.28;;;16.10;;
33802;SDS011;20110;53.120;5.786;2022-09-09T02:49:25;37.15;;;14.75;;
33802;SDS011;20110;53.120;5.786;2022-09-09T02:54:34;29.23;;;14.57;;
33802;SDS011;20110;53.120;5.786;2022-09-09T02:57:06;29.85;;;16.23;;
33802;SDS011;20110;53.120;5.786;2022-09-09T02:59:53;34.72;;;13.98;;
33802;SDS011;20110;53.120;5.786;2022-09-09T03:02:22;19.48;;;12.35;;
33802;SDS011;20110;53.120;5.786;2022-09-09T03:04:50;33.80;;;14.80;;
33802;SDS011;20110;53.120;5.786;2022-09-09T03:07:17;26.95;;;13.88;;
33802;SDS011;20110;53.120;5.786;2022-09-09T03:09:46;29.20;;;14.43;;
33802;SDS011;20110;53.120;5.786;2022-09-09T03:12:12;37.78;;;15.45;;
33802;SDS011;20110;53.120;5.786;2022-09-09T03:14:38;29.60;;;14.00;;
33802;SDS011;20110;53.120;5.786;2022-09-09T03:17:04;24.48;;;14.02;;
33802;SDS011;20110;53.120;5.786;2022-09-09T03:19:31;27.85;;;14.35;;
33802;SDS011;20110;53.120;5.786;2022-09-09T03:21:57;38.85;;;14.88;;
33802;SDS011;20110;53.120;5.786;2022-09-09T03:24:24;31.30;;;14.80;;
33802;SDS011;20110;53.120;5.786;2022-09-09T03:26:50;28.58;;;14.32;;
33802;SDS011;20110;53.120;5.786;2022-09-09T03:29:16;33.65;;;14.80;;
33802;SDS011;20110;53.120;5.786;2022-09-09T03:31:43;25.27;;;12.30;;
33802;SDS011;20110;53.120;5.786;2022-09-09T03:34:09;21.67;;;11.90;;
33802;SDS011;20110;53.120;5.786;2022-09-09T03:36:36;25.73;;;12.45;;
33802;SDS011;20110;53.120;5.786;2022-09-09T03:39:02;23.23;;;12.10;;
33802;SDS011;20110;53.120;5.786;2022-09-09T03:41:29;29.38;;;12.40;;
33802;SDS011;20110;53.120;5.786;2022-09-09T03:43:55;28.08;;;12.63;;
33802;SDS011;20110;53.120;5.786;2022-09-09T03:46:22;23.48;;;11.77;;
33802;SDS011;20110;53.120;5.786;2022-09-09T03:48:50;19.00;;;11.60;;
33802;SDS011;20110;53.120;5.786;2022-09-09T03:51:17;25.90;;;12.13;;
33802;SDS011;20110;53.120;5.786;2022-09-09T03:53:43;22.67;;;11.52;;
33802;SDS011;20110;53.120;5.786;2022-09-09T03:56:09;28.90;;;11.98;;
33802;SDS011;20110;53.120;5.786;2022-09-09T03:58:36;19.48;;;10.05;;
33802;SDS011;20110;53.120;5.786;2022-09-09T04:01:04;26.48;;;11.25;;
33802;SDS011;20110;53.120;5.786;2022-09-09T04:03:33;34.03;;;12.25;;
33802;SDS011;20110;53.120;5.786;2022-09-09T04:06:00;20.55;;;11.82;;
33802;SDS011;20110;53.120;5.786;2022-09-09T04:08:28;23.85;;;11.30;;
33802;SDS011;20110;53.120;5.786;2022-09-09T04:10:58;19.63;;;10.93;;
33802;SDS011;20110;53.120;5.786;2022-09-09T04:13:25;19.90;;;10.85;;
33802;SDS011;20110;53.120;5.786;2022-09-09T04:15:55;29.23;;;9.82;;
33802;SDS011;20110;53.120;5.786;2022-09-09T04:18:26;20.27;;;9.07;;
33802;SDS011;20110;53.120;5.786;2022-09-09T04:20:55;20.00;;;8.98;;
33802;SDS011;20110;53.120;5.786;2022-09-09T04:23:23;14.00;;;8.60;;
33802;SDS011;20110;53.120;5.786;2022-09-09T04:25:52;17.95;;;8.90;;
33802;SDS011;20110;53.120;5.786;2022-09-09T04:28:20;23.17;;;10.27;;
33802;SDS011;20110;53.120;5.786;2022-09-09T04:30:49;24.20;;;10.35;;
33802;SDS011;20110;53.120;5.786;2022-09-09T04:33:17;18.95;;;10.20;;
33802;SDS011;20110;53.120;5.786;2022-09-09T04:35:48;25.40;;;9.82;;
33802;SDS011;20110;53.120;5.786;2022-09-09T04:38:15;22.10;;;10.65;;
33802;SDS011;20110;53.120;5.786;2022-09-09T04:40:43;23.02;;;10.52;;
33802;SDS011;20110;53.120;5.786;2022-09-09T04:43:12;20.92;;;10.07;;
33802;SDS011;20110;53.120;5.786;2022-09-09T04:45:39;22.17;;;10.18;;
33802;SDS011;20110;53.120;5.786;2022-09-09T04:48:06;20.83;;;8.35;;
33802;SDS011;20110;53.120;5.786;2022-09-09T04:50:34;18.13;;;8.70;;
33802;SDS011;20110;53.120;5.786;2022-09-09T04:53:03;21.67;;;9.38;;
33802;SDS011;20110;53.120;5.786;2022-09-09T04:55:30;19.95;;;8.55;;
33802;SDS011;20110;53.120;5.786;2022-09-09T04:57:57;17.95;;;7.68;;
33802;SDS011;20110;53.120;5.786;2022-09-09T05:00:23;22.48;;;9.77;;
33802;SDS011;20110;53.120;5.786;2022-09-09T05:02:50;20.98;;;8.48;;
33802;SDS011;20110;53.120;5.786;2022-09-09T05:05:16;21.15;;;8.93;;
33802;SDS011;20110;53.120;5.786;2022-09-09T05:07:43;20.90;;;8.63;;
33802;SDS011;20110;53.120;5.786;2022-09-09T05:10:09;11.48;;;7.82;;
33802;SDS011;20110;53.120;5.786;2022-09-09T05:12:35;15.90;;;8.20;;
33802;SDS011;20110;53.120;5.786;2022-09-09T05:15:01;15.55;;;7.90;;
33802;SDS011;20110;53.120;5.786;2022-09-09T05:17:27;14.65;;;8.52;;
33802;SDS011;20110;53.120;5.786;2022-09-09T05:19:53;15.35;;;8.23;;
33802;SDS011;20110;53.120;5.786;2022-09-09T05:22:19;21.52;;;9.48;;
33802;SDS011;20110;53.120;5.786;2022-09-09T05:24:46;16.17;;;8.73;;
33802;SDS011;20110;53.120;5.786;2022-09-09T05:27:13;19.35;;;8.68;;
33802;SDS011;20110;53.120;5.786;2022-09-09T05:29:38;21.95;;;9.43;;
33802;SDS011;20110;53.120;5.786;2022-09-09T05:32:06;21.90;;;10.48;;
33802;SDS011;20110;53.120;5.786;2022-09-09T05:34:34;17.25;;;9.10;;
33802;SDS011;20110;53.120;5.786;2022-09-09T05:37:02;18.35;;;10.85;;
33802;SDS011;20110;53.120;5.786;2022-09-09T05:39:29;25.58;;;11.75;;
33802;SDS011;20110;53.120;5.786;2022-09-09T05:41:55;12.20;;;8.77;;
33802;SDS011;20110;53.120;5.786;2022-09-09T05:44:20;28.15;;;11.82;;
33802;SDS011;20110;53.120;5.786;2022-09-09T05:46:48;23.95;;;12.05;;
33802;SDS011;20110;53.120;5.786;2022-09-09T05:49:14;26.15;;;12.52;;
33802;SDS011;20110;53.120;5.786;2022-09-09T05:51:40;22.42;;;12.85;;
33802;SDS011;20110;53.120;5.786;2022-09-09T05:54:08;19.88;;;11.75;;
33802;SDS011;20110;53.120;5.786;2022-09-09T05:56:34;20.48;;;12.25;;
33802;SDS011;20110;53.120;5.786;2022-09-09T05:59:07;27.02;;;12.63;;
33802;SDS011;20110;53.120;5.786;2022-09-09T06:01:35;21.20;;;12.05;;
33802;SDS011;20110;53.120;5.786;2022-09-09T06:04:05;22.00;;;13.07;;
33802;SDS011;20110;53.120;5.786;2022-09-09T06:06:33;21.65;;;12.13;;
33802;SDS011;20110;53.120;5.786;2022-09-09T06:09:02;26.42;;;12.32;;
33802;SDS011;20110;53.120;5.786;2022-09-09T06:11:35;25.27;;;13.18;;
33802;SDS011;20110;53.120;5.786;2022-09-09T06:14:03;17.33;;;10.90;;
33802;SDS011;20110;53.120;5.786;2022-09-09T06:16:30;20.80;;;11.40;;
33802;SDS011;20110;53.120;5.786;2022-09-09T06:18:57;15.93;;;9.77;;
33802;SDS011;20110;53.120;5.786;2022-09-09T06:21:31;20.30;;;10.98;;
33802;SDS011;20110;53.120;5.786;2022-09-09T06:24:02;20.25;;;10.35;;
33802;SDS011;20110;53.120;5.786;2022-09-09T06:26:32;19.23;;;9.85;;
33802;SDS011;20110;53.120;5.786;2022-09-09T06:29:06;13.65;;;9.43;;
33802;SDS011;20110;53.120;5.786;2022-09-09T06:31:33;16.77;;;10.43;;
33802;SDS011;20110;53.120;5.786;2022-09-09T06:34:02;27.48;;;10.50;;
33802;SDS011;20110;53.120;5.786;2022-09-09T06:36:32;22.63;;;10.82;;
33802;SDS011;20110;53.120;5.786;2022-09-09T06:39:02;18.95;;;10.32;;
33802;SDS011;20110;53.120;5.786;2022-09-09T06:41:29;15.75;;;11.27;;
33802;SDS011;20110;53.120;5.786;2022-09-09T06:43:57;15.30;;;10.07;;
33802;SDS011;20110;53.120;5.786;2022-09-09T06:47:59;21.23;;;10.73;;
33802;SDS011;20110;53.120;5.786;2022-09-09T06:54:00;11.85;;;9.02;;
33802;SDS011;20110;53.120;5.786;2022-09-09T07:01:12;22.15;;;9.15;;
33802;SDS011;20110;53.120;5.786;2022-09-09T07:03:40;17.42;;;9.82;;
33802;SDS011;20110;53.120;5.786;2022-09-09T07:06:07;15.68;;;9.30;;
33802;SDS011;20110;53.120;5.786;2022-09-09T07:08:39;18.95;;;9.70;;
33802;SDS011;20110;53.120;5.786;2022-09-09T07:11:05;15.25;;;9.32;;
33802;SDS011;20110;53.120;5.786;2022-09-09T07:13:32;13.55;;;8.60;;
33802;SDS011;20110;53.120;5.786;2022-09-09T07:16:05;14.13;;;9.80;;
33802;SDS011;20110;53.120;5.786;2022-09-09T07:18:35;15.50;;;9.98;;
33802;SDS011;20110;53.120;5.786;2022-09-09T07:21:02;21.38;;;10.07;;
33802;SDS011;20110;53.120;5.786;2022-09-09T07:23:28;15.68;;;9.65;;
33802;SDS011;20110;53.120;5.786;2022-09-09T07:25:55;15.65;;;8.98;;
33802;SDS011;20110;53.120;5.786;2022-09-09T07:28:23;19.38;;;9.23;;
33802;SDS011;20110;53.120;5.786;2022-09-09T07:30:53;15.52;;;10.18;;
33802;SDS011;20110;53.120;5.786;2022-09-09T07:33:19;22.55;;;9.32;;
33802;SDS011;20110;53.120;5.786;2022-09-09T07:35:45;22.15;;;10.57;;
33802;SDS011;20110;53.120;5.786;2022-09-09T07:38:10;12.93;;;7.55;;
33802;SDS011;20110;53.120;5.786;2022-09-09T07:40:36;17.92;;;9.65;;
33802;SDS011;20110;53.120;5.786;2022-09-09T07:43:02;11.43;;;7.75;;
33802;SDS011;20110;53.120;5.786;2022-09-09T07:45:28;11.52;;;7.97;;
33802;SDS011;20110;53.120;5.786;2022-09-09T07:47:57;17.80;;;7.55;;
33802;SDS011;20110;53.120;5.786;2022-09-09T07:50:23;11.10;;;7.30;;
33802;SDS011;20110;53.120;5.786;2022-09-09T07:52:50;11.40;;;8.00;;
33802;SDS011;20110;53.120;5.786;2022-09-09T07:55:17;13.50;;;7.80;;
33802;SDS011;20110;53.120;5.786;2022-09-09T07:57:42;17.10;;;7.40;;
33802;SDS011;20110;53.120;5.786;2022-09-09T08:00:08;8.43;;;6.93;;
33802;SDS011;20110;53.120;5.786;2022-09-09T08:02:35;14.57;;;6.53;;
33802;SDS011;20110;53.120;5.786;2022-09-09T08:05:01;7.15;;;6.13;;
33802;SDS011;20110;53.120;5.786;2022-09-09T08:07:27;10.85;;;5.78;;
33802;SDS011;20110;53.120;5.786;2022-09-09T08:11:22;11.85;;;5.85;;
33802;SDS011;20110;53.120;5.786;2022-09-09T08:13:51;10.77;;;6.10;;
33802;SDS011;20110;53.120;5.786;2022-09-09T08:16:19;7.53;;;5.38;;
33802;SDS011;20110;53.120;5.786;2022-09-09T08:18:48;10.40;;;5.57;;
33802;SDS011;20110;53.120;5.786;2022-09-09T08:21:19;10.48;;;6.25;;
33802;SDS011;20110;53.120;5.786;2022-09-09T08:23:49;13.13;;;5.55;;
33802;SDS011;20110;53.120;5.786;2022-09-09T08:26:18;9.25;;;5.25;;
33802;SDS011;20110;53.120;5.786;2022-09-09T08:28:47;11.60;;;5.32;;
33802;SDS011;20110;53.120;5.786;2022-09-09T08:31:17;10.10;;;4.88;;
33802;SDS011;20110;53.120;5.786;2022-09-09T08:33:46;10.13;;;4.88;;
33802;SDS011;20110;53.120;5.786;2022-09-09T08:36:13;8.18;;;4.60;;
33802;SDS011;20110;53.120;5.786;2022-09-09T08:38:42;13.05;;;5.03;;
33802;SDS011;20110;53.120;5.786;2022-09-09T08:55:52;7.13;;;3.63;;
33802;SDS011;20110;53.120;5.786;2022-09-09T08:58:31;10.95;;;3.35;;
33802;SDS011;20110;53.120;5.786;2022-09-09T09:06:35;5.25;;;3.83;;
33802;SDS011;20110;53.120;5.786;2022-09-09T09:12:29;14.85;;;4.85;;
33802;SDS011;20110;53.120;5.786;2022-09-09T09:15:05;13.48;;;5.15;;
33802;SDS011;20110;53.120;5.786;2022-09-09T09:17:46;10.05;;;4.78;;
33802;SDS011;20110;53.120;5.786;2022-09-09T09:20:13;7.40;;;4.80;;
33802;SDS011;20110;53.120;5.786;2022-09-09T09:25:27;11.45;;;4.07;;
33802;SDS011;20110;53.120;5.786;2022-09-09T09:28:10;7.07;;;3.13;;
33802;SDS011;20110;53.120;5.786;2022-09-09T09:30:48;8.63;;;3.35;;
33802;SDS011;20110;53.120;5.786;2022-09-09T09:33:21;13.15;;;3.78;;
33802;SDS011;20110;53.120;5.786;2022-09-09T09:36:04;15.02;;;3.63;;
33802;SDS011;20110;53.120;5.786;2022-09-09T09:38:33;4.10;;;3.08;;
33802;SDS011;20110;53.120;5.786;2022-09-09T09:41:01;11.77;;;3.70;;
33802;SDS011;20110;53.120;5.786;2022-09-09T09:43:32;11.15;;;2.85;;
33802;SDS011;20110;53.120;5.786;2022-09-09T09:46:00;8.18;;;2.50;;
33802;SDS011;20110;53.120;5.786;2022-09-09T09:48:29;8.43;;;2.35;;
33802;SDS011;20110;53.120;5.786;2022-09-09T09:50:59;11.90;;;2.92;;
33802;SDS011;20110;53.120;5.786;2022-09-09T09:53:36;5.85;;;2.20;;
33802;SDS011;20110;53.120;5.786;2022-09-09T09:56:05;9.25;;;2.63;;
33802;SDS011;20110;53.120;5.786;2022-09-09T10:01:20;12.13;;;2.42;;
33802;SDS011;20110;53.120;5.786;2022-09-09T10:03:53;4.93;;;2.10;;
33802;SDS011;20110;53.120;5.786;2022-09-09T10:06:33;8.57;;;2.10;;
33802;SDS011;20110;53.120;5.786;2022-09-09T10:09:03;5.53;;;1.77;;
33802;SDS011;20110;53.120;5.786;2022-09-09T10:14:45;8.55;;;2.20;;
33802;SDS011;20110;53.120;5.786;2022-09-09T10:32:49;6.72;;;2.10;;
33802;SDS011;20110;53.120;5.786;2022-09-09T10:38:41;2.63;;;1.65;;
33802;SDS011;20110;53.120;5.786;2022-09-09T10:47:37;7.60;;;1.52;;
33802;SDS011;20110;53.120;5.786;2022-09-09T10:50:35;4.22;;;1.40;;
33802;SDS011;20110;53.120;5.786;2022-09-09T10:55:59;6.15;;;1.40;;
33802;SDS011;20110;53.120;5.786;2022-09-09T11:01:11;5.60;;;1.95;;
33802;SDS011;20110;53.120;5.786;2022-09-09T11:04:01;4.22;;;1.70;;
33802;SDS011;20110;53.120;5.786;2022-09-09T11:06:44;4.07;;;1.88;;
33802;SDS011;20110;53.120;5.786;2022-09-09T11:09:18;6.97;;;1.83;;
33802;SDS011;20110;53.120;5.786;2022-09-09T11:11:57;9.18;;;1.60;;
33802;SDS011;20110;53.120;5.786;2022-09-09T11:14:31;3.55;;;1.48;;
33802;SDS011;20110;53.120;5.786;2022-09-09T11:17:02;2.08;;;1.23;;
33802;SDS011;20110;53.120;5.786;2022-09-09T11:19:42;6.32;;;1.70;;
33802;SDS011;20110;53.120;5.786;2022-09-09T11:24:51;5.60;;;1.27;;
33802;SDS011;20110;53.120;5.786;2022-09-09T11:30:31;7.00;;;1.55;;
33802;SDS011;20110;53.120;5.786;2022-09-09T11:42:47;7.47;;;1.70;;
33802;SDS011;20110;53.120;5.786;2022-09-09T11:45:35;4.43;;;1.70;;
33802;SDS011;20110;53.120;5.786;2022-09-09T11:48:02;6.57;;;1.75;;
33802;SDS011;20110;53.120;5.786;2022-09-09T11:50:35;5.38;;;1.48;;
33802;SDS011;20110;53.120;5.786;2022-09-09T11:53:23;8.02;;;1.88;;
33802;SDS011;20110;53.120;5.786;2022-09-09T11:55:59;10.32;;;1.60;;
33802;SDS011;20110;53.120;5.786;2022-09-09T11:58:39;4.93;;;1.80;;
33802;SDS011;20110;53.120;5.786;2022-09-09T12:01:25;9.02;;;1.80;;
33802;SDS011;20110;53.120;5.786;2022-09-09T12:04:10;10.10;;;1.70;;
33802;SDS011;20110;53.120;5.786;2022-09-09T12:06:46;6.95;;;1.90;;
33802;SDS011;20110;53.120;5.786;2022-09-09T12:09:26;7.55;;;1.85;;
33802;SDS011;20110;53.120;5.786;2022-09-09T12:14:58;9.02;;;1.75;;
33802;SDS011;20110;53.120;5.786;2022-09-09T12:17:28;7.28;;;1.85;;
33802;SDS011;20110;53.120;5.786;2022-09-09T12:20:14;7.85;;;1.75;;
33802;SDS011;20110;53.120;5.786;2022-09-09T12:31:47;4.90;;;1.27;;
33802;SDS011;20110;53.120;5.786;2022-09-09T12:34:39;10.30;;;2.08;;
33802;SDS011;20110;53.120;5.786;2022-09-09T12:42:45;11.65;;;1.90;;
33802;SDS011;20110;53.120;5.786;2022-09-09T12:45:21;4.65;;;1.50;;
33802;SDS011;20110;53.120;5.786;2022-09-09T12:47:54;7.03;;;1.63;;
33802;SDS011;20110;53.120;5.786;2022-09-09T12:50:37;8.30;;;2.20;;
33802;SDS011;20110;53.120;5.786;2022-09-09T12:53:17;7.88;;;2.35;;
33802;SDS011;20110;53.120;5.786;2022-09-09T12:55:57;5.63;;;1.60;;
33802;SDS011;20110;53.120;5.786;2022-09-09T12:58:27;4.80;;;1.90;;
33802;SDS011;20110;53.120;5.786;2022-09-09T13:00:58;4.75;;;1.52;;
33802;SDS011;20110;53.120;5.786;2022-09-09T13:03:25;7.82;;;1.45;;
33802;SDS011;20110;53.120;5.786;2022-09-09T13:05:52;6.18;;;1.80;;
33802;SDS011;20110;53.120;5.786;2022-09-09T13:08:25;8.40;;;1.70;;
33802;SDS011;20110;53.120;5.786;2022-09-09T13:11:01;8.75;;;2.22;;
33802;SDS011;20110;53.120;5.786;2022-09-09T13:13:38;7.82;;;1.88;;
33802;SDS011;20110;53.120;5.786;2022-09-09T13:16:18;7.60;;;1.50;;
33802;SDS011;20110;53.120;5.786;2022-09-09T13:18:52;6.45;;;1.15;;
33802;SDS011;20110;53.120;5.786;2022-09-09T13:21:18;2.47;;;1.02;;
33802;SDS011;20110;53.120;5.786;2022-09-09T13:23:48;4.18;;;1.00;;
33802;SDS011;20110;53.120;5.786;2022-09-09T13:28:47;3.42;;;1.35;;
33802;SDS011;20110;53.120;5.786;2022-09-09T13:31:29;4.35;;;1.80;;
33802;SDS011;20110;53.120;5.786;2022-09-09T13:33:58;6.85;;;1.60;;
33802;SDS011;20110;53.120;5.786;2022-09-09T13:36:35;7.60;;;1.73;;
33802;SDS011;20110;53.120;5.786;2022-09-09T13:39:01;8.10;;;2.33;;
33802;SDS011;20110;53.120;5.786;2022-09-09T13:43:58;9.27;;;3.17;;
33802;SDS011;20110;53.120;5.786;2022-09-09T13:46:41;8.38;;;3.20;;
33802;SDS011;20110;53.120;5.786;2022-09-09T13:54:10;2.40;;;1.85;;
33802;SDS011;20110;53.120;5.786;2022-09-09T13:56:38;4.93;;;1.58;;
33802;SDS011;20110;53.120;5.786;2022-09-09T13:59:08;7.43;;;1.65;;
33802;SDS011;20110;53.120;5.786;2022-09-09T14:01:37;5.57;;;1.35;;
33802;SDS011;20110;53.120;5.786;2022-09-09T14:04:03;3.97;;;1.42;;
33802;SDS011;20110;53.120;5.786;2022-09-09T14:06:31;2.38;;;1.38;;
33802;SDS011;20110;53.120;5.786;2022-09-09T14:09:00;5.18;;;1.67;;
33802;SDS011;20110;53.120;5.786;2022-09-09T14:11:25;2.53;;;1.48;;
33802;SDS011;20110;53.120;5.786;2022-09-09T14:13:51;1.75;;;1.25;;
33802;SDS011;20110;53.120;5.786;2022-09-09T14:16:17;6.88;;;1.08;;
33802;SDS011;20110;53.120;5.786;2022-09-09T14:18:44;2.65;;;1.17;;
33802;SDS011;20110;53.120;5.786;2022-09-09T14:21:11;3.83;;;1.42;;
33802;SDS011;20110;53.120;5.786;2022-09-09T14:23:37;5.63;;;1.63;;
33802;SDS011;20110;53.120;5.786;2022-09-09T14:26:07;5.28;;;1.75;;
33802;SDS011;20110;53.120;5.786;2022-09-09T14:28:34;3.42;;;1.52;;
33802;SDS011;20110;53.120;5.786;2022-09-09T14:31:01;6.30;;;1.30;;
33802;SDS011;20110;53.120;5.786;2022-09-09T14:33:29;2.97;;;1.30;;
33802;SDS011;20110;53.120;5.786;2022-09-09T14:35:58;5.45;;;1.80;;
33802;SDS011;20110;53.120;5.786;2022-09-09T14:38:32;7.68;;;1.63;;
33802;SDS011;20110;53.120;5.786;2022-09-09T14:41:05;4.45;;;1.67;;
33802;SDS011;20110;53.120;5.786;2022-09-09T14:43:32;6.25;;;1.83;;
33802;SDS011;20110;53.120;5.786;2022-09-09T14:46:10;6.53;;;2.53;;
33802;SDS011;20110;53.120;5.786;2022-09-09T14:48:42;4.47;;;1.00;;
33802;SDS011;20110;53.120;5.786;2022-09-09T14:51:09;5.10;;;1.50;;
33802;SDS011;20110;53.120;5.786;2022-09-09T14:53:54;3.58;;;1.50;;
33802;SDS011;20110;53.120;5.786;2022-09-09T14:56:26;4.90;;;1.90;;
33802;SDS011;20110;53.120;5.786;2022-09-09T14:58:55;7.78;;;2.47;;
33802;SDS011;20110;53.120;5.786;2022-09-09T15:01:24;4.70;;;2.22;;
33802;SDS011;20110;53.120;5.786;2022-09-09T15:03:57;8.32;;;2.50;;
33802;SDS011;20110;53.120;5.786;2022-09-09T15:06:29;5.45;;;2.17;;
33802;SDS011;20110;53.120;5.786;2022-09-09T15:08:58;4.65;;;2.20;;
33802;SDS011;20110;53.120;5.786;2022-09-09T15:11:26;6.78;;;3.33;;
33802;SDS011;20110;53.120;5.786;2022-09-09T15:13:55;3.10;;;2.80;;
33802;SDS011;20110;53.120;5.786;2022-09-09T15:16:23;8.27;;;3.70;;
33802;SDS011;20110;53.120;5.786;2022-09-09T15:18:52;8.75;;;3.40;;
33802;SDS011;20110;53.120;5.786;2022-09-09T15:21:22;13.80;;;3.97;;
33802;SDS011;20110;53.120;5.786;2022-09-09T15:23:54;15.13;;;4.30;;
33802;SDS011;20110;53.120;5.786;2022-09-09T15:26:21;9.60;;;3.25;;
33802;SDS011;20110;53.120;5.786;2022-09-09T15:28:48;6.80;;;4.25;;
33802;SDS011;20110;53.120;5.786;2022-09-09T15:31:23;10.50;;;4.82;;
33802;SDS011;20110;53.120;5.786;2022-09-09T15:36:26;7.95;;;4.57;;
33802;SDS011;20110;53.120;5.786;2022-09-09T15:38:57;9.60;;;5.35;;
33802;SDS011;20110;53.120;5.786;2022-09-09T15:41:24;8.00;;;5.10;;
33802;SDS011;20110;53.120;5.786;2022-09-09T15:43:51;10.85;;;5.47;;
33802;SDS011;20110;53.120;5.786;2022-09-09T15:46:26;6.93;;;5.07;;
33802;SDS011;20110;53.120;5.786;2022-09-09T15:48:58;12.88;;;4.82;;
33802;SDS011;20110;53.120;5.786;2022-09-09T15:51:40;10.82;;;4.97;;
33802;SDS011;20110;53.120;5.786;2022-09-09T15:54:09;9.63;;;4.63;;
33802;SDS011;20110;53.120;5.786;2022-09-09T15:56:44;14.73;;;4.30;;
33802;SDS011;20110;53.120;5.786;2022-09-09T15:59:13;13.23;;;4.63;;
33802;SDS011;20110;53.120;5.786;2022-09-09T16:01:40;8.32;;;4.75;;
33802;SDS011;20110;53.120;5.786;2022-09-09T16:04:07;8.77;;;4.28;;
33802;SDS011;20110;53.120;5.786;2022-09-09T16:06:33;9.20;;;4.13;;
33802;SDS011;20110;53.120;5.786;2022-09-09T16:08:59;9.10;;;4.85;;
33802;SDS011;20110;53.120;5.786;2022-09-09T16:11:28;13.50;;;5.05;;
33802;SDS011;20110;53.120;5.786;2022-09-09T16:14:00;7.90;;;4.60;;
33802;SDS011;20110;53.120;5.786;2022-09-09T16:16:29;6.97;;;4.25;;
33802;SDS011;20110;53.120;5.786;2022-09-09T16:18:59;9.45;;;4.35;;
33802;SDS011;20110;53.120;5.786;2022-09-09T16:21:33;8.32;;;4.25;;
33802;SDS011;20110;53.120;5.786;2022-09-09T16:24:14;12.60;;;5.40;;
33802;SDS011;20110;53.120;5.786;2022-09-09T16:26:44;9.70;;;4.35;;
33802;SDS011;20110;53.120;5.786;2022-09-09T16:29:13;7.88;;;4.50;;
33802;SDS011;20110;53.120;5.786;2022-09-09T16:31:41;7.70;;;4.63;;
33802;SDS011;20110;53.120;5.786;2022-09-09T16:34:09;8.30;;;5.18;;
33802;SDS011;20110;53.120;5.786;2022-09-09T16:36:36;7.95;;;4.97;;
33802;SDS011;20110;53.120;5.786;2022-09-09T16:39:05;11.02;;;5.10;;
33802;SDS011;20110;53.120;5.786;2022-09-09T16:41:34;8.20;;;4.80;;
33802;SDS011;20110;53.120;5.786;2022-09-09T16:44:02;6.57;;;4.97;;
33802;SDS011;20110;53.120;5.786;2022-09-09T16:46:31;9.95;;;5.40;;
33802;SDS011;20110;53.120;5.786;2022-09-09T16:49:01;6.60;;;3.35;;
33802;SDS011;20110;53.120;5.786;2022-09-09T16:51:34;3.70;;;1.65;;
33802;SDS011;20110;53.120;5.786;2022-09-09T16:54:06;2.55;;;1.30;;
33802;SDS011;20110;53.120;5.786;2022-09-09T16:56:35;3.10;;;1.55;;
33802;SDS011;20110;53.120;5.786;2022-09-09T16:59:07;4.05;;;1.85;;
33802;SDS011;20110;53.120;5.786;2022-09-09T17:01:42;5.95;;;2.08;;
33802;SDS011;20110;53.120;5.786;2022-09-09T17:04:11;8.23;;;1.95;;
33802;SDS011;20110;53.120;5.786;2022-09-09T17:06:41;5.22;;;2.55;;
33802;SDS011;20110;53.120;5.786;2022-09-09T17:09:10;8.10;;;2.75;;
33802;SDS011;20110;53.120;5.786;2022-09-09T17:11:38;9.13;;;3.40;;
33802;SDS011;20110;53.120;5.786;2022-09-09T17:14:04;5.00;;;3.38;;
33802;SDS011;20110;53.120;5.786;2022-09-09T17:16:33;5.68;;;3.13;;
33802;SDS011;20110;53.120;5.786;2022-09-09T17:19:00;6.60;;;3.88;;
33802;SDS011;20110;53.120;5.786;2022-09-09T17:21:28;9.00;;;4.43;;
33802;SDS011;20110;53.120;5.786;2022-09-09T17:23:56;10.75;;;5.93;;
33802;SDS011;20110;53.120;5.786;2022-09-09T17:26:25;7.15;;;5.20;;
33802;SDS011;20110;53.120;5.786;2022-09-09T17:28:54;10.75;;;5.35;;
33802;SDS011;20110;53.120;5.786;2022-09-09T17:31:22;8.30;;;6.00;;
33802;SDS011;20110;53.120;5.786;2022-09-09T17:33:50;14.57;;;5.97;;
33802;SDS011;20110;53.120;5.786;2022-09-09T17:36:21;12.38;;;6.80;;
33802;SDS011;20110;53.120;5.786;2022-09-09T17:38:50;13.23;;;7.38;;
33802;SDS011;20110;53.120;5.786;2022-09-09T17:41:17;8.32;;;7.28;;
33802;SDS011;20110;53.120;5.786;2022-09-09T17:43:57;14.77;;;7.57;;
33802;SDS011;20110;53.120;5.786;2022-09-09T17:46:27;13.32;;;7.97;;
33802;SDS011;20110;53.120;5.786;2022-09-09T17:48:58;12.32;;;8.20;;
33802;SDS011;20110;53.120;5.786;2022-09-09T17:51:27;9.98;;;8.20;;
33802;SDS011;20110;53.120;5.786;2022-09-09T17:53:56;11.68;;;7.70;;